Time;durP1;ratioP1;P1;durP2;ratioP2;P2;SDS_P1;SDS_P2;PMS_P1;PMS_P2;Temp;Humidity;BMP_temperature;BMP_pressure;BME280_temperature;BME280_humidity;BME280_pressure;Samples;Min_cycle;Max_cycle;Signal;HPM_P1;HPM_P2
2023/04/30 00:00:51;;;;;;;6.55;2.33;;;5.40;99.90;;;;;;4862731;29;20457;-92
2023/04/30 00:03:16;;;;;;;4.40;1.95;;;5.90;99.90;;;;;;4862474;29;20136;-92
2023/04/30 00:05:42;;;;;;;5.00;1.55;;;4.80;99.90;;;;;;4862306;29;20049;-91
2023/04/30 00:08:08;;;;;;;8.57;2.67;;;4.70;99.90;;;;;;4859128;29;20038;-92
2023/04/30 00:10:34;;;;;;;9.95;3.22;;;5.10;99.90;;;;;;4861364;29;20055;-93
2023/04/30 00:12:59;;;;;;;17.52;5.07;;;4.70;99.90;;;;;;4862349;29;20088;-92
2023/04/30 00:15:25;;;;;;;16.48;4.38;;;5.60;99.90;;;;;;4862128;29;20044;-92
2023/04/30 00:17:52;;;;;;;12.38;4.57;;;4.60;99.90;;;;;;4859683;29;20514;-92
2023/04/30 00:20:18;;;;;;;11.45;4.25;;;4.60;99.90;;;;;;4876404;29;20101;-92
2023/04/30 00:22:44;;;;;;;10.18;4.20;;;5.10;99.90;;;;;;4862407;29;20045;-91
2023/04/30 00:25:10;;;;;;;11.13;4.18;;;5.00;99.90;;;;;;4844079;29;20041;-91
2023/04/30 00:27:35;;;;;;;13.60;4.35;;;4.60;99.90;;;;;;4865706;29;20092;-91
2023/04/30 00:30:01;;;;;;;15.15;4.43;;;4.80;99.90;;;;;;4868404;29;20056;-92
2023/04/30 00:32:27;;;;;;;10.68;3.65;;;4.60;99.90;;;;;;4879976;29;20055;-91
2023/04/30 00:34:53;;;;;;;14.50;3.80;;;4.60;99.90;;;;;;4849712;29;20218;-91
2023/04/30 00:37:18;;;;;;;11.88;3.78;;;4.60;99.90;;;;;;4846421;29;20064;-92
2023/04/30 00:39:45;;;;;;;9.43;4.00;;;4.60;99.90;;;;;;4864431;29;20044;-92
2023/04/30 00:42:11;;;;;;;9.52;3.88;;;5.30;99.90;;;;;;4888484;29;20059;-92
2023/04/30 00:44:37;;;;;;;12.23;3.53;;;4.70;99.90;;;;;;4862952;29;20045;-92
2023/04/30 00:47:02;;;;;;;7.38;2.90;;;4.50;99.90;;;;;;4859111;29;20057;-92
2023/04/30 00:49:28;;;;;;;12.27;3.78;;;5.10;99.90;;;;;;4863599;29;20052;-93
2023/04/30 00:51:54;;;;;;;11.30;3.20;;;5.30;99.90;;;;;;4876826;29;20048;-92
2023/04/30 00:54:20;;;;;;;13.40;5.10;;;4.60;99.90;;;;;;4862909;29;20049;-92
2023/04/30 00:56:46;;;;;;;14.75;4.65;;;5.20;99.90;;;;;;4846646;29;20044;-91
2023/04/30 00:59:12;;;;;;;4.40;1.70;;;4.50;99.90;;;;;;4860238;29;20127;-92
2023/04/30 01:01:38;;;;;;;1.75;1.20;;;5.50;99.90;;;;;;4857307;29;20045;-92
2023/04/30 01:04:05;;;;;;;6.53;2.58;;;4.40;99.90;;;;;;4873249;29;20056;-92
2023/04/30 01:06:31;;;;;;;6.78;2.80;;;5.40;99.90;;;;;;4860983;29;20045;-92
2023/04/30 01:08:57;;;;;;;7.78;3.47;;;5.00;99.90;;;;;;4858217;29;20128;-91
2023/04/30 01:11:46;;;;;;;7.18;2.35;;;5.30;99.90;;;;;;4855057;29;20053;-92
2023/04/30 01:14:24;;;;;;;5.93;2.90;;;4.30;99.90;;;;;;4850524;29;20060;-91
2023/04/30 01:17:03;;;;;;;8.07;2.75;;;4.30;99.90;;;;;;4860757;29;20047;-92
2023/04/30 01:19:39;;;;;;;10.38;3.83;;;4.30;99.90;;;;;;4871929;29;20068;-92
2023/04/30 01:22:09;;;;;;;8.27;3.10;;;4.20;99.90;;;;;;4876599;29;20041;-92
2023/04/30 01:24:48;;;;;;;11.45;4.22;;;4.90;99.90;;;;;;4851741;29;20083;-92
2023/04/30 01:27:38;;;;;;;16.00;4.68;;;4.20;99.90;;;;;;4851906;29;20383;-92
2023/04/30 01:30:06;;;;;;;13.45;5.03;;;4.20;99.90;;;;;;4852313;29;20065;-93
2023/04/30 01:32:31;;;;;;;7.25;3.45;;;4.20;99.90;;;;;;4870887;29;20052;-93
2023/04/30 01:34:57;;;;;;;9.52;4.70;;;4.50;99.90;;;;;;4861200;29;20048;-92
2023/04/30 01:37:40;;;;;;;10.35;5.55;;;4.60;99.90;;;;;;4844865;29;20057;-92
2023/04/30 01:40:23;;;;;;;9.45;4.60;;;4.80;99.90;;;;;;4850166;29;20136;-92
2023/04/30 01:42:49;;;;;;;;;;;4.10;99.90;;;;;;4865644;29;20077;-94
2023/04/30 01:45:21;;;;;;;12.52;4.40;;;4.00;99.90;;;;;;4864204;29;20311;-92
2023/04/30 01:47:47;;;;;;;12.85;4.10;;;4.20;99.90;;;;;;4861690;29;20093;-93
2023/04/30 01:50:25;;;;;;;14.45;6.00;;;4.60;99.90;;;;;;4856487;29;20619;-91
2023/04/30 01:52:53;;;;;;;11.10;3.92;;;4.20;99.90;;;;;;4876842;29;20051;-92
2023/04/30 01:55:29;;;;;;;10.77;4.75;;;5.10;99.90;;;;;;4876085;29;20127;-92
2023/04/30 01:58:00;;;;;;;9.90;4.13;;;4.20;99.90;;;;;;4854608;29;20438;-93
2023/04/30 02:00:27;;;;;;;13.43;4.35;;;4.20;99.90;;;;;;4864502;29;20048;-92
2023/04/30 02:02:53;;;;;;;17.48;5.10;;;5.00;99.90;;;;;;4874416;29;20044;-91
2023/04/30 02:05:18;;;;;;;9.88;4.32;;;4.90;99.90;;;;;;4865561;29;20048;-93
2023/04/30 02:07:48;;;;;;;8.85;4.85;;;4.30;99.90;;;;;;4873404;29;20044;-93
2023/04/30 02:10:15;;;;;;;10.88;5.15;;;4.40;99.90;;;;;;4863753;29;20076;-93
2023/04/30 02:12:46;;;;;;;14.63;5.80;;;4.40;99.90;;;;;;4872933;29;20135;-94
2023/04/30 02:15:12;;;;;;;11.75;5.25;;;3.90;99.90;;;;;;4878416;29;20616;-93
2023/04/30 02:17:38;;;;;;;9.50;5.18;;;4.40;99.90;;;;;;4868127;29;20093;-93
2023/04/30 02:20:04;;;;;;;10.52;5.03;;;5.60;99.90;;;;;;4867554;29;20056;-93
2023/04/30 02:22:30;;;;;;;13.65;5.25;;;4.40;99.90;;;;;;4876931;29;20044;-93
2023/04/30 02:24:56;;;;;;;13.50;4.70;;;4.40;99.90;;;;;;4882099;29;20060;-92
2023/04/30 02:27:24;;;;;;;12.38;4.68;;;5.30;99.90;;;;;;4866761;29;20136;-93
2023/04/30 02:29:50;;;;;;;9.82;4.68;;;5.60;99.90;;;;;;4864462;29;20060;-93
2023/04/30 02:32:16;;;;;;;7.22;3.60;;;5.10;99.90;;;;;;4858598;29;20053;-94
2023/04/30 02:34:42;;;;;;;8.32;3.83;;;5.00;99.90;;;;;;4867279;29;20104;-93
2023/04/30 02:37:08;;;;;;;7.45;3.95;;;4.50;99.90;;;;;;4867357;29;20053;-93
2023/04/30 02:39:34;;;;;;;9.57;3.72;;;5.30;99.90;;;;;;4866211;29;20473;-94
2023/04/30 02:41:59;;;;;;;6.03;3.45;;;4.50;99.90;;;;;;4883107;29;20139;-94
2023/04/30 02:44:26;;;;;;;11.27;4.10;;;5.10;99.90;;;;;;4867207;29;20044;-94
2023/04/30 02:46:51;;;;;;;11.23;4.40;;;4.90;99.90;;;;;;4867544;29;20052;-93
2023/04/30 02:49:17;;;;;;;8.00;4.22;;;4.70;99.90;;;;;;4863832;29;20504;-94
2023/04/30 02:51:43;;;;;;;10.63;3.95;;;4.90;99.90;;;;;;4858428;29;20060;-94
2023/04/30 02:54:09;;;;;;;4.18;2.40;;;4.50;99.90;;;;;;4864012;29;20123;-93
2023/04/30 02:56:35;;;;;;;14.23;4.05;;;5.40;99.90;;;;;;4858308;29;20056;-94
2023/04/30 02:59:00;;;;;;;11.38;4.60;;;4.60;99.90;;;;;;4866156;29;20049;-93
2023/04/30 03:01:26;;;;;;;10.35;4.75;;;5.00;99.90;;;;;;4885442;29;20048;-93
2023/04/30 03:03:52;;;;;;;14.23;5.05;;;5.60;99.90;;;;;;4868025;29;20070;-94
2023/04/30 03:06:18;;;;;;;12.63;4.70;;;4.70;99.90;;;;;;4866629;29;20056;-93
2023/04/30 03:08:44;;;;;;;7.28;4.22;;;5.60;99.90;;;;;;4873630;29;20041;-94
2023/04/30 03:11:09;;;;;;;9.38;3.88;;;5.00;99.90;;;;;;4865104;29;20053;-94
2023/04/30 03:13:35;;;;;;;7.93;2.80;;;5.80;99.90;;;;;;4906365;29;20041;-94
2023/04/30 03:16:04;;;;;;;6.82;3.70;;;4.90;99.90;;;;;;4863149;29;20059;-93
2023/04/30 03:18:30;;;;;;;12.30;4.22;;;4.70;99.90;;;;;;4865245;29;20086;-93
2023/04/30 03:20:56;;;;;;;10.70;3.88;;;5.00;99.90;;;;;;4864386;29;20084;-93
2023/04/30 03:23:22;;;;;;;9.50;4.32;;;5.10;99.90;;;;;;4865046;29;20080;-93
2023/04/30 03:25:48;;;;;;;11.48;4.65;;;5.50;99.90;;;;;;4877717;29;20048;-94
2023/04/30 03:28:14;;;;;;;11.88;4.05;;;5.20;99.90;;;;;;4867192;29;20100;-93
2023/04/30 03:30:40;;;;;;;9.18;3.67;;;5.80;99.90;;;;;;4867068;29;20678;-93
2023/04/30 03:33:06;;;;;;;12.73;4.15;;;5.70;99.90;;;;;;4866446;29;20048;-93
2023/04/30 03:35:33;;;;;;;7.88;4.00;;;5.50;99.90;;;;;;4863220;29;20053;-94
2023/04/30 03:37:59;;;;;;;8.98;3.83;;;4.80;99.90;;;;;;4863402;29;20072;-92
2023/04/30 03:40:25;;;;;;;10.45;4.40;;;5.70;99.90;;;;;;4866024;29;20131;-93
2023/04/30 03:42:51;;;;;;;10.00;4.40;;;5.10;99.90;;;;;;4894198;29;20151;-92
2023/04/30 03:45:20;;;;;;;12.82;4.47;;;4.80;99.90;;;;;;4862724;29;20084;-93
2023/04/30 03:47:46;;;;;;;15.32;4.70;;;4.80;99.90;;;;;;4872816;29;20055;-93
2023/04/30 03:50:12;;;;;;;11.48;3.88;;;5.60;99.90;;;;;;4871522;29;20052;-93
2023/04/30 03:52:38;;;;;;;6.85;4.10;;;5.20;99.90;;;;;;4866154;29;20097;-94
2023/04/30 03:55:05;;;;;;;6.55;3.63;;;5.60;99.90;;;;;;4866440;29;20131;-94
2023/04/30 03:57:31;;;;;;;10.48;4.30;;;4.60;99.90;;;;;;4866306;29;20048;-92
2023/04/30 03:59:57;;;;;;;10.77;4.60;;;5.00;99.90;;;;;;4876677;29;20051;-93
2023/04/30 04:02:24;;;;;;;10.23;3.95;;;4.80;99.90;;;;;;4866573;29;20059;-94
2023/04/30 04:04:50;;;;;;;14.48;4.35;;;4.60;99.90;;;;;;4863493;29;20169;-93
2023/04/30 04:07:16;;;;;;;10.68;4.57;;;5.20;99.90;;;;;;4883576;29;20095;-93
2023/04/30 04:09:42;;;;;;;9.00;4.28;;;4.50;99.90;;;;;;4873571;29;20041;-92
2023/04/30 04:12:08;;;;;;;5.97;3.33;;;5.00;99.90;;;;;;4866566;29;20103;-92
2023/04/30 04:14:34;;;;;;;11.55;4.13;;;4.40;99.90;;;;;;4866255;29;20115;-93
2023/04/30 04:17:00;;;;;;;7.78;4.10;;;5.20;99.90;;;;;;4866660;29;20073;-93
2023/04/30 04:19:27;;;;;;;7.07;3.47;;;4.40;99.90;;;;;;4861837;29;20057;-92
2023/04/30 04:21:53;;;;;;;10.38;4.70;;;4.30;99.90;;;;;;4862356;29;20053;-92
2023/04/30 04:24:18;;;;;;;12.45;3.72;;;5.20;99.90;;;;;;4896535;29;20132;-94
2023/04/30 04:26:44;;;;;;;13.25;4.68;;;5.10;99.90;;;;;;4865033;29;20049;-94
2023/04/30 04:29:11;;;;;;;14.35;4.80;;;4.90;99.90;;;;;;4865691;29;20236;-93
2023/04/30 04:31:37;;;;;;;10.25;4.50;;;4.40;99.90;;;;;;4873791;29;20071;-95
2023/04/30 04:34:04;;;;;;;9.32;4.22;;;4.20;99.90;;;;;;4893742;29;20454;-94
2023/04/30 04:36:32;;;;;;;8.52;4.30;;;4.40;99.90;;;;;;4857548;29;20041;-94
2023/04/30 04:39:01;;;;;;;11.10;4.72;;;5.10;99.90;;;;;;4844506;29;20081;-94
2023/04/30 04:41:27;;;;;;;8.10;4.32;;;4.30;99.90;;;;;;4862289;29;20060;-94
2023/04/30 04:43:53;;;;;;;11.63;5.50;;;5.40;99.90;;;;;;4862556;29;20048;-93
2023/04/30 04:46:19;;;;;;;12.50;4.97;;;4.50;99.90;;;;;;4861901;29;20048;-93
2023/04/30 04:48:46;;;;;;;13.20;4.88;;;4.30;99.90;;;;;;4858785;29;20046;-93
2023/04/30 04:51:11;;;;;;;10.15;4.00;;;4.30;99.90;;;;;;4861214;29;20048;-93
2023/04/30 04:53:37;;;;;;;9.70;4.45;;;4.70;99.90;;;;;;4861005;29;20132;-93
2023/04/30 04:56:04;;;;;;;13.07;5.50;;;4.50;99.90;;;;;;4867426;29;20484;-92
2023/04/30 04:58:30;;;;;;;7.80;4.43;;;4.50;99.90;;;;;;4867958;29;20092;-92
2023/04/30 05:00:56;;;;;;;9.65;4.35;;;4.60;99.90;;;;;;4858917;29;20078;-93
2023/04/30 05:03:26;;;;;;;11.25;4.40;;;4.70;99.90;;;;;;4853412;29;20502;-93
2023/04/30 05:05:51;;;;;;;9.52;4.75;;;4.60;99.90;;;;;;4861802;29;20088;-94
2023/04/30 05:08:17;;;;;;;12.18;4.90;;;5.00;99.90;;;;;;4862360;29;20045;-93
2023/04/30 05:10:43;;;;;;;11.40;4.45;;;5.10;99.90;;;;;;4882630;29;20048;-93
2023/04/30 05:13:09;;;;;;;14.30;4.75;;;5.20;99.90;;;;;;4867167;29;20088;-93
2023/04/30 05:15:35;;;;;;;8.32;5.28;;;5.40;99.90;;;;;;4846049;29;20055;-94
2023/04/30 05:18:00;;;;;;;13.50;5.88;;;5.50;99.90;;;;;;4874407;29;20051;-95
2023/04/30 05:20:26;;;;;;;10.18;5.93;;;5.60;99.90;;;;;;4871231;29;20398;-93
2023/04/30 05:22:52;;;;;;;15.20;5.80;;;5.70;99.90;;;;;;4857901;29;20085;-93
2023/04/30 05:25:17;;;;;;;15.82;5.90;;;5.80;99.90;;;;;;4861093;29;20059;-93
2023/04/30 05:27:43;;;;;;;15.63;5.60;;;5.90;99.90;;;;;;4861747;29;20134;-94
2023/04/30 05:30:10;;;;;;;16.98;5.95;;;6.70;99.90;;;;;;4874874;29;20053;-93
2023/04/30 05:32:35;;;;;;;18.23;5.85;;;6.00;99.90;;;;;;4865254;29;20076;-93
2023/04/30 05:35:01;;;;;;;12.77;5.70;;;6.10;99.90;;;;;;4875635;29;20044;-92
2023/04/30 05:37:27;;;;;;;17.05;6.10;;;6.20;99.90;;;;;;4862003;29;20098;-93
2023/04/30 05:39:53;;;;;;;13.80;5.72;;;6.20;99.90;;;;;;4875399;29;20053;-93
2023/04/30 05:42:19;;;;;;;17.80;6.50;;;6.80;99.90;;;;;;4870296;29;20059;-92
2023/04/30 05:44:45;;;;;;;18.40;7.03;;;6.30;99.90;;;;;;4879529;29;20047;-93
2023/04/30 05:47:11;;;;;;;14.00;6.00;;;6.40;99.90;;;;;;4864410;29;20056;-95
2023/04/30 05:49:37;;;;;;;15.77;6.15;;;6.60;99.90;;;;;;4863587;29;20056;-93
2023/04/30 05:52:03;;;;;;;16.58;5.35;;;6.70;99.90;;;;;;4869794;29;20057;-94
2023/04/30 05:54:29;;;;;;;12.48;4.97;;;6.80;99.90;;;;;;4870287;29;20051;-94
2023/04/30 05:56:55;;;;;;;19.00;5.55;;;6.90;99.90;;;;;;4892627;29;20048;-94
2023/04/30 05:59:21;;;;;;;14.45;5.35;;;7.00;99.90;;;;;;4882600;29;20112;-94
2023/04/30 06:01:47;;;;;;;17.40;5.00;;;7.10;99.90;;;;;;4880123;29;20040;-92
2023/04/30 06:04:13;;;;;;;21.83;6.32;;;7.20;99.90;;;;;;4870352;29;20095;-93
2023/04/30 06:06:38;;;;;;;13.13;4.72;;;7.30;99.90;;;;;;4869157;29;20084;-92
2023/04/30 06:09:04;;;;;;;16.63;5.22;;;7.30;99.90;;;;;;4864863;29;20131;-93
2023/04/30 06:11:36;;;;;;;18.23;5.32;;;7.40;99.90;;;;;;4866226;29;20076;-96
2023/04/30 06:14:02;;;;;;;16.15;4.50;;;7.40;99.90;;;;;;4867743;29;20128;-94
2023/04/30 06:16:29;;;;;;;17.35;4.50;;;7.50;99.90;;;;;;4868136;29;20100;-94
2023/04/30 06:18:54;;;;;;;20.02;4.82;;;7.60;99.90;;;;;;4870164;29;20044;-93
2023/04/30 06:21:20;;;;;;;18.25;4.22;;;7.60;99.90;;;;;;4870733;29;20051;-92
2023/04/30 06:23:46;;;;;;;13.88;3.95;;;7.80;99.90;;;;;;4873320;29;20396;-93
2023/04/30 06:26:13;;;;;;;15.55;4.97;;;7.90;99.90;;;;;;4871705;29;20052;-94
2023/04/30 06:28:40;;;;;;;19.45;4.00;;;8.10;99.90;;;;;;4870259;29;20151;-92
2023/04/30 06:31:05;;;;;;;18.95;3.78;;;8.20;99.90;;;;;;4866411;29;20067;-92
2023/04/30 06:33:31;;;;;;;11.80;3.90;;;8.40;99.90;;;;;;4866530;29;20106;-92
2023/04/30 06:35:57;;;;;;;17.45;3.90;;;8.60;99.90;;;;;;4865696;29;20083;-93
2023/04/30 06:38:25;;;;;;;13.15;3.65;;;8.60;99.90;;;;;;4866591;29;20096;-93
2023/04/30 06:40:51;;;;;;;14.88;3.70;;;8.80;99.90;;;;;;4849455;29;20057;-94
2023/04/30 06:43:17;;;;;;;13.88;3.70;;;8.80;99.90;;;;;;4859759;29;20056;-93
2023/04/30 06:45:43;;;;;;;13.80;3.28;;;8.80;99.90;;;;;;4876856;29;20077;-96
2023/04/30 06:48:09;;;;;;;13.75;3.28;;;8.80;99.90;;;;;;4864527;29;20068;-92
2023/04/30 06:50:42;;;;;;;11.05;3.45;;;8.90;99.90;;;;;;4874280;29;20108;-93
2023/04/30 06:53:08;;;;;;;11.35;2.97;;;8.90;99.90;;;;;;4852011;29;20049;-93
2023/04/30 06:55:34;;;;;;;13.85;3.03;;;9.00;99.90;;;;;;4878528;29;20057;-94
2023/04/30 06:58:00;;;;;;;13.00;3.67;;;9.00;99.90;;;;;;4867480;29;20049;-92
2023/04/30 07:00:25;;;;;;;16.35;4.18;;;9.00;99.90;;;;;;4876338;29;20045;-93
2023/04/30 07:02:51;;;;;;;14.15;2.42;;;9.20;99.90;;;;;;4866673;29;20052;-93
2023/04/30 07:05:17;;;;;;;18.60;2.28;;;9.30;99.90;;;;;;4851718;29;20087;-93
2023/04/30 07:07:43;;;;;;;16.90;3.50;;;9.30;99.90;;;;;;4860177;29;20065;-93
2023/04/30 07:10:10;;;;;;;13.60;2.53;;;9.40;99.90;;;;;;4860545;29;20049;-93
2023/04/30 07:12:36;;;;;;;16.92;2.55;;;9.40;99.90;;;;;;4863919;29;20055;-94
2023/04/30 07:15:03;;;;;;;11.98;2.25;;;9.50;99.90;;;;;;4838524;29;20085;-94
2023/04/30 07:17:28;;;;;;;13.60;2.90;;;9.50;99.90;;;;;;4866774;29;20044;-94
2023/04/30 07:19:54;;;;;;;9.95;2.97;;;9.60;99.90;;;;;;4870109;29;20056;-94
2023/04/30 07:22:23;;;;;;;13.15;2.50;;;9.70;99.90;;;;;;4870214;29;20107;-94
2023/04/30 07:24:49;;;;;;;11.80;2.47;;;9.90;99.90;;;;;;4864044;29;20049;-93
2023/04/30 07:27:15;;;;;;;18.73;2.83;;;10.00;99.90;;;;;;4872621;29;20541;-92
2023/04/30 07:29:40;;;;;;;16.50;2.92;;;10.10;99.90;;;;;;4857552;29;20049;-91
2023/04/30 07:32:06;;;;;;;18.67;3.22;;;10.10;99.90;;;;;;4865980;29;20053;-91
2023/04/30 07:34:34;;;;;;;16.75;2.30;;;10.20;99.90;;;;;;4861239;29;20045;-91
2023/04/30 07:37:00;;;;;;;11.15;2.60;;;9.50;99.90;;;;;;4844278;29;20050;-90
2023/04/30 07:39:26;;;;;;;12.57;2.58;;;10.30;99.90;;;;;;4875480;29;20049;-91
2023/04/30 07:41:52;;;;;;;13.77;2.35;;;10.40;99.90;;;;;;4863435;29;20091;-90
2023/04/30 07:44:17;;;;;;;13.65;2.75;;;10.50;99.90;;;;;;4862363;29;20144;-90
2023/04/30 07:46:43;;;;;;;13.40;2.55;;;10.50;99.90;;;;;;4871940;29;20107;-90
2023/04/30 07:49:09;;;;;;;12.57;2.53;;;10.70;99.90;;;;;;4862478;29;20055;-89
2023/04/30 07:51:35;;;;;;;13.10;2.88;;;10.20;99.90;;;;;;4877754;29;20048;-89
2023/04/30 07:54:01;;;;;;;11.60;2.65;;;10.70;99.90;;;;;;4863589;29;20049;-89
2023/04/30 07:56:27;;;;;;;12.88;2.55;;;10.80;99.90;;;;;;4871317;29;20051;-89
2023/04/30 07:58:53;;;;;;;12.07;2.45;;;10.80;99.90;;;;;;4850500;29;20132;-90
2023/04/30 08:01:19;;;;;;;11.38;1.92;;;10.90;99.90;;;;;;4844383;29;20104;-92
2023/04/30 08:03:45;;;;;;;13.82;2.70;;;11.00;99.90;;;;;;4862965;29;20040;-90
2023/04/30 08:06:11;;;;;;;13.77;2.97;;;11.00;99.90;;;;;;4861512;29;20143;-90
2023/04/30 08:08:36;;;;;;;16.73;3.15;;;11.00;99.90;;;;;;4856217;29;20049;-90
2023/04/30 08:11:02;;;;;;;11.63;2.65;;;11.10;99.90;;;;;;4871333;29;20044;-91
2023/04/30 08:13:28;;;;;;;11.50;3.38;;;11.10;99.90;;;;;;4865220;29;20081;-90
2023/04/30 08:15:54;;;;;;;11.30;2.25;;;11.20;99.90;;;;;;4857326;29;20057;-89
2023/04/30 08:18:20;;;;;;;10.13;2.05;;;11.30;99.90;;;;;;4869772;29;20049;-90
2023/04/30 08:20:45;;;;;;;12.38;2.50;;;11.40;99.90;;;;;;4844230;29;20060;-91
2023/04/30 08:23:11;;;;;;;11.65;2.72;;;11.40;99.90;;;;;;4859861;29;20136;-93
2023/04/30 08:25:37;;;;;;;16.80;2.63;;;11.50;99.90;;;;;;4864009;29;20052;-91
2023/04/30 08:28:03;;;;;;;10.93;2.17;;;11.50;99.90;;;;;;4866721;29;20595;-92
2023/04/30 08:30:28;;;;;;;11.00;2.55;;;11.60;99.90;;;;;;4868189;29;20109;-91
2023/04/30 08:32:54;;;;;;;11.95;2.42;;;11.70;99.90;;;;;;4864527;29;20084;-92
2023/04/30 08:35:20;;;;;;;10.45;2.20;;;11.70;99.90;;;;;;4863573;29;20044;-91
2023/04/30 08:37:46;;;;;;;15.65;2.53;;;11.70;99.90;;;;;;4874541;29;20489;-91
2023/04/30 08:40:12;;;;;;;13.52;2.63;;;11.70;99.90;;;;;;4861330;29;20054;-92
2023/04/30 08:42:44;;;;;;;7.93;1.83;;;11.80;99.90;;;;;;4874413;29;20048;-92
2023/04/30 08:45:12;;;;;;;11.23;2.30;;;11.90;99.90;;;;;;4858102;29;20048;-92
2023/04/30 08:47:38;;;;;;;11.15;2.60;;;12.10;99.90;;;;;;4862982;29;20056;-91
2023/04/30 08:50:06;;;;;;;9.45;2.20;;;12.20;99.90;;;;;;4860919;29;20037;-91
2023/04/30 08:52:34;;;;;;;14.02;2.20;;;12.20;99.90;;;;;;4863027;29;20052;-93
2023/04/30 08:55:20;;;;;;;30.30;11.70;;;12.30;99.90;;;;;;4871016;29;20123;-92
2023/04/30 08:57:46;;;;;;;10.57;2.63;;;12.30;99.90;;;;;;4872820;29;20045;-92
2023/04/30 09:00:14;;;;;;;11.80;2.40;;;12.40;99.90;;;;;;4860168;29;20037;-92
2023/04/30 09:02:48;;;;;;;13.30;2.22;;;12.40;99.90;;;;;;4870024;29;20060;-92
2023/04/30 09:05:14;;;;;;;11.45;2.35;;;12.40;99.90;;;;;;4873093;29;20087;-91
2023/04/30 09:07:42;;;;;;;9.18;2.17;;;12.40;99.90;;;;;;4868678;29;20051;-93
2023/04/30 09:10:44;;;;;;;8.85;2.50;;;12.50;99.90;;;;;;4862973;29;20040;-95
2023/04/30 09:13:11;;;;;;;14.95;2.33;;;12.50;99.90;;;;;;4858972;29;20143;-92
2023/04/30 09:15:41;;;;;;;11.98;2.47;;;12.50;99.90;;;;;;4863917;29;20089;-92
2023/04/30 09:47:53;;;;;;;;;;;;;;;;;;;;;
2023/04/30 09:51:24;;;;;;;;;;;;;;;;;;;;;
2023/04/30 10:05:52;;;;;;;;;;;;;;;;;;;;;
2023/04/30 10:13:25;;;;;;;8.27;1.90;;;13.80;99.90;;;;;;6058704;23;20025;-92
2023/04/30 10:19:26;;;;;;;;;;;;;;;;;;;;;
2023/04/30 12:04:46;;;;;;;7.43;1.65;;;15.40;99.90;;;;;;6217606;23;20127;-96
2023/04/30 12:07:54;;;;;;;3.75;1.67;;;15.50;99.90;;;;;;6223238;23;20024;-96
2023/04/30 12:11:37;;;;;;;6.28;1.88;;;15.70;99.90;;;;;;6211466;23;20024;-96
2023/04/30 12:14:37;;;;;;;6.00;1.80;;;15.40;99.90;;;;;;6215407;23;20020;-96
2023/04/30 12:17:36;;;;;;;7.55;2.30;;;15.10;99.90;;;;;;6098129;23;20024;-95
2023/04/30 12:20:34;;;;;;;5.90;1.95;;;15.60;99.90;;;;;;6214046;23;20031;-95
2023/04/30 12:23:18;;;;;;;7.00;1.80;;;15.40;99.90;;;;;;6186626;23;20082;-95
2023/04/30 12:26:10;;;;;;;5.88;1.85;;;15.60;99.90;;;;;;6195252;23;20027;-95
2023/04/30 12:32:58;;;;;;;5.47;1.80;;;15.70;99.90;;;;;;6240184;23;20085;-95
2023/04/30 12:35:46;;;;;;;6.60;2.42;;;15.80;99.90;;;;;;6189171;23;20024;-94
2023/04/30 12:38:26;;;;;;;6.30;1.95;;;15.50;99.90;;;;;;6182439;23;20051;-95
2023/04/30 12:42:07;;;;;;;5.03;2.20;;;15.70;99.90;;;;;;6214951;23;20099;-94
2023/04/30 12:45:28;;;;;;;9.77;2.30;;;16.00;99.90;;;;;;6210545;23;20534;-96
2023/04/30 12:48:28;;;;;;;6.47;2.15;;;15.80;99.90;;;;;;6192800;23;20028;-95
2023/04/30 12:51:30;;;;;;;4.53;1.92;;;15.70;99.90;;;;;;6187535;23;20065;-95
2023/04/30 12:54:47;;;;;;;10.18;2.50;;;15.80;99.90;;;;;;6188208;23;20107;-95
2023/04/30 12:57:31;;;;;;;7.00;2.40;;;16.10;99.90;;;;;;6122103;23;20099;-95
2023/04/30 13:01:13;;;;;;;7.72;2.10;;;16.10;99.90;;;;;;6214378;23;20023;-96
2023/04/30 13:04:28;;;;;;;8.75;2.45;;;16.10;99.90;;;;;;6219759;23;20020;-95
2023/04/30 13:10:50;;;;;;;9.15;2.30;;;15.90;99.90;;;;;;6118360;23;20031;-95
2023/04/30 13:13:46;;;;;;;6.55;2.40;;;16.00;99.90;;;;;;6184834;23;20082;-94
2023/04/30 13:16:24;;;;;;;8.80;2.80;;;16.10;99.90;;;;;;6188721;23;20024;-96
2023/04/30 13:19:04;;;;;;;8.57;2.65;;;16.00;99.90;;;;;;6191958;23;20016;-96
2023/04/30 13:26:16;;;;;;;5.38;1.95;;;16.00;99.90;;;;;;6174930;23;20109;-96
2023/04/30 13:29:12;;;;;;;7.65;2.30;;;16.00;99.90;;;;;;6213616;22;20086;-96
2023/04/30 13:31:47;;;;;;;9.07;2.05;;;16.10;99.90;;;;;;6188720;23;20020;-96
2023/04/30 13:35:10;;;;;;;7.03;1.70;;;16.20;99.90;;;;;;6174562;23;20024;-96
2023/04/30 13:39:28;;;;;;;;;;;;;;;;;;;;;
2023/04/30 13:41:46;;;;;;;5.97;1.85;;;16.20;99.90;;;;;;6168747;23;20126;-95
2023/04/30 13:44:44;;;;;;;;;;;;;;;;;;;;;
2023/04/30 13:47:20;;;;;;;5.10;1.70;;;16.00;99.90;;;;;;6212388;23;20024;-95
2023/04/30 13:57:20;;;;;;;5.00;1.25;;;16.20;99.90;;;;;;5996198;23;20512;-96
2023/04/30 13:59:58;;;;;;;5.13;1.20;;;15.90;99.90;;;;;;6046098;23;20066;-95
2023/04/30 14:03:14;;;;;;;6.10;1.33;;;16.30;99.90;;;;;;6046092;23;20509;-95
2023/04/30 14:07:46;;;;;;;6.18;1.80;;;16.10;99.90;;;;;;6030498;23;20112;-95
2023/04/30 14:27:34;;;;;;;4.35;1.00;;;16.40;99.90;;;;;;6237437;23;20028;-96
2023/04/30 14:30:49;;;;;;;6.38;1.42;;;16.30;99.90;;;;;;6222727;23;20032;-96
2023/04/30 14:33:39;;;;;;;6.75;1.48;;;16.40;99.90;;;;;;6114865;23;20072;-96
2023/04/30 14:36:47;;;;;;;5.63;1.50;;;16.40;99.90;;;;;;6221870;22;20060;-96
2023/04/30 14:40:00;;;;;;;3.60;1.05;;;16.50;99.90;;;;;;6163922;23;20024;-96
2023/04/30 14:42:41;;;;;;;4.88;1.17;;;16.60;99.90;;;;;;6194157;23;20024;-96
2023/04/30 14:52:31;;;;;;;7.85;1.38;;;16.90;99.90;;;;;;6071205;23;20018;-96
2023/04/30 14:55:45;;;;;;;5.35;1.30;;;16.80;99.90;;;;;;6009820;23;20028;-96
2023/04/30 14:58:21;;;;;;;5.55;1.15;;;16.80;99.90;;;;;;5964052;23;20027;-96
2023/04/30 15:01:17;;;;;;;;;;;;;;;;;;;;;
2023/04/30 15:04:23;;;;;;;3.75;1.20;;;17.00;99.90;;;;;;6139292;23;20592;-96
2023/04/30 15:07:31;;;;;;;6.50;1.30;;;17.10;99.90;;;;;;6193975;23;20062;-96
2023/04/30 15:10:35;;;;;;;4.45;1.23;;;17.10;99.90;;;;;;6192104;23;20357;-96
2023/04/30 15:14:09;;;;;;;6.88;1.08;;;17.10;99.90;;;;;;6081691;23;20012;-96
2023/04/30 15:20:20;;;;;;;6.15;1.35;;;17.20;99.90;;;;;;6242966;22;20042;-88
2023/04/30 15:22:45;;;;;;;6.18;1.55;;;17.20;99.90;;;;;;6190255;23;20348;-87
2023/04/30 15:25:11;;;;;;;4.68;1.17;;;17.20;99.90;;;;;;6190311;23;20026;-88
2023/04/30 15:27:37;;;;;;;5.95;1.00;;;17.20;99.90;;;;;;6189607;23;20391;-88
2023/04/30 15:30:05;;;;;;;5.43;1.10;;;17.20;99.90;;;;;;6189744;23;20024;-88
2023/04/30 15:32:30;;;;;;;4.55;1.10;;;17.20;99.90;;;;;;6189152;23;20028;-89
2023/04/30 15:34:56;;;;;;;5.38;0.95;;;17.30;99.90;;;;;;6189450;23;20027;-88
2023/04/30 15:37:22;;;;;;;5.25;0.82;;;17.30;99.90;;;;;;6189539;23;20530;-89
2023/04/30 15:39:48;;;;;;;4.00;0.75;;;17.40;99.90;;;;;;6190099;23;20052;-88
2023/04/30 15:42:13;;;;;;;4.35;0.80;;;17.40;99.90;;;;;;6189809;23;20023;-88
2023/04/30 15:44:39;;;;;;;4.18;1.02;;;17.50;99.90;;;;;;6215167;23;20515;-87
2023/04/30 15:47:05;;;;;;;5.32;1.10;;;17.40;99.90;;;;;;6189827;23;20020;-89
2023/04/30 15:49:30;;;;;;;4.78;1.40;;;17.50;99.90;;;;;;6189189;23;20500;-88
2023/04/30 15:51:56;;;;;;;7.93;1.80;;;17.50;99.90;;;;;;6213477;23;20329;-88
2023/04/30 15:54:22;;;;;;;8.15;1.60;;;17.50;99.90;;;;;;6213992;23;20100;-88
2023/04/30 15:56:48;;;;;;;4.65;1.15;;;17.50;99.90;;;;;;6188643;23;20107;-88
2023/04/30 15:59:15;;;;;;;5.25;0.93;;;17.50;99.90;;;;;;6189787;23;20560;-88
2023/04/30 16:01:42;;;;;;;3.55;1.08;;;17.50;99.90;;;;;;6188439;23;20126;-87
2023/04/30 16:04:08;;;;;;;5.68;1.20;;;17.50;99.90;;;;;;6188593;23;20130;-88
2023/04/30 16:06:34;;;;;;;6.15;0.80;;;17.50;99.90;;;;;;6187856;23;20012;-87
2023/04/30 16:09:05;;;;;;;2.50;0.93;;;17.50;99.90;;;;;;6187817;23;20051;-86
2023/04/30 16:11:32;;;;;;;5.53;1.08;;;17.70;99.90;;;;;;6188202;23;20050;-86
2023/04/30 16:13:58;;;;;;;5.22;1.17;;;17.80;99.90;;;;;;6214009;23;20051;-87
2023/04/30 16:16:23;;;;;;;2.67;0.95;;;17.80;99.90;;;;;;6212611;23;20020;-87
2023/04/30 16:18:51;;;;;;;11.93;1.27;;;17.90;99.90;;;;;;6189900;23;20039;-87
2023/04/30 16:21:21;;;;;;;6.13;1.13;;;18.00;99.90;;;;;;6189813;23;20143;-89
2023/04/30 16:49:06;;;;;;;5.97;1.80;;;20.00;99.90;;;;;;6008234;23;20046;-91
2023/04/30 16:58:44;;;;;;;7.50;1.73;;;20.10;99.90;;;;;;6243796;22;20023;-96
2023/04/30 17:01:34;;;;;;;5.13;1.60;;;20.20;99.90;;;;;;6243319;23;20014;-96
2023/04/30 17:05:32;;;;;;;8.10;1.83;;;19.90;99.90;;;;;;6241791;22;20023;-95
2023/04/30 17:08:20;;;;;;;9.38;2.13;;;19.60;99.90;;;;;;6093513;23;20471;-96
2023/04/30 17:15:22;;;;;;;9.77;2.45;;;19.00;99.90;;;;;;6177319;22;20055;-96
2023/04/30 17:21:28;;;;;;;10.77;3.22;;;18.70;99.90;;;;;;6139012;23;20055;-95
2023/04/30 17:24:24;;;;;;;14.77;3.38;;;18.40;99.90;;;;;;6218217;23;20102;-96
2023/04/30 17:27:10;;;;;;;10.07;2.70;;;18.00;99.90;;;;;;6215229;22;20473;-96